createdAt,value
2023-12-13T00:01:32.785Z,59.35
2023-12-13T00:03:59.964Z,59.34
2023-12-13T00:06:27.090Z,59.12
2023-12-13T00:08:54.236Z,59.18
2023-12-13T00:11:21.353Z,59.12
2023-12-13T00:13:48.461Z,59.19
2023-12-13T00:16:16.131Z,59.00
2023-12-13T00:18:43.354Z,58.91
2023-12-13T00:21:11.343Z,59.04
2023-12-13T00:23:38.811Z,59.01
2023-12-13T00:26:06.050Z,59.06
2023-12-13T00:28:35.045Z,59.17
2023-12-13T00:31:02.234Z,59.33
2023-12-13T00:33:29.421Z,59.48
2023-12-13T00:35:56.609Z,59.69
2023-12-13T00:38:23.643Z,59.80
2023-12-13T00:40:50.672Z,59.91
2023-12-13T00:43:18.322Z,59.96
2023-12-13T00:45:45.477Z,60.05
2023-12-13T00:48:12.763Z,60.20
2023-12-13T00:50:40.831Z,60.13
2023-12-13T00:53:08.422Z,60.04
2023-12-13T00:55:35.697Z,60.03
2023-12-13T00:58:02.825Z,60.02
2023-12-13T01:00:30.856Z,59.96
2023-12-13T01:02:58.371Z,60.00
2023-12-13T01:05:25.488Z,59.95
2023-12-13T01:07:53.921Z,59.77
2023-12-13T01:10:21.463Z,59.88
2023-12-13T01:12:48.711Z,59.78
2023-12-13T01:15:15.968Z,59.83
2023-12-13T01:17:43.099Z,59.75
2023-12-13T01:20:11.004Z,59.67
2023-12-13T01:22:38.405Z,59.72
2023-12-13T01:25:07.034Z,59.62
2023-12-13T01:27:34.298Z,59.66
2023-12-13T01:30:01.550Z,59.48
2023-12-13T01:32:28.892Z,59.54
2023-12-13T01:34:55.957Z,59.61
2023-12-13T01:37:23.002Z,59.51
2023-12-13T01:39:50.051Z,59.66
2023-12-13T01:42:17.979Z,59.54
2023-12-13T01:44:45.026Z,59.43
2023-12-13T01:47:13.334Z,59.38
2023-12-13T01:49:41.092Z,59.31
2023-12-13T01:52:08.890Z,59.33
2023-12-13T01:54:37.981Z,59.30
2023-12-13T01:57:05.726Z,59.27
2023-12-13T01:59:34.969Z,59.28
2023-12-13T02:02:02.456Z,59.21
2023-12-13T02:04:30.247Z,59.28
2023-12-13T02:06:57.384Z,59.25
2023-12-13T02:09:24.393Z,59.35
2023-12-13T02:11:51.569Z,59.35
2023-12-13T02:14:19.518Z,59.35
2023-12-13T02:16:46.790Z,59.44
2023-12-13T02:19:13.987Z,59.34
2023-12-13T02:21:41.143Z,59.36
2023-12-13T02:24:09.669Z,59.13
2023-12-13T02:26:43.227Z,59.14
2023-12-13T02:29:10.847Z,59.36
2023-12-13T02:31:39.069Z,59.25
2023-12-13T02:34:06.207Z,59.27
2023-12-13T02:36:33.402Z,59.18
2023-12-13T02:39:02.874Z,59.13
2023-12-13T02:41:30.724Z,59.10
2023-12-13T02:43:57.806Z,59.22
2023-12-13T02:46:24.976Z,59.26
2023-12-13T02:48:52.176Z,59.22
2023-12-13T02:51:19.729Z,59.03
2023-12-13T02:53:46.996Z,58.99
2023-12-13T02:56:14.106Z,59.02
2023-12-13T02:58:41.175Z,58.95
2023-12-13T03:01:08.473Z,58.97
2023-12-13T03:03:35.784Z,58.72
2023-12-13T03:06:03.101Z,58.79
2023-12-13T03:08:30.361Z,58.75
2023-12-13T03:10:57.492Z,58.66
2023-12-13T03:13:25.138Z,58.64
2023-12-13T03:15:52.197Z,58.57
2023-12-13T03:18:19.425Z,58.66
2023-12-13T03:20:46.601Z,58.58
2023-12-13T03:23:13.645Z,58.46
2023-12-13T03:25:40.794Z,58.46
2023-12-13T03:28:07.949Z,58.46
2023-12-13T03:30:35.105Z,58.25
2023-12-13T03:33:02.266Z,58.17
2023-12-13T03:35:29.362Z,58.09
2023-12-13T03:37:56.423Z,58.06
2023-12-13T03:40:23.562Z,57.93
2023-12-13T03:42:50.643Z,57.83
2023-12-13T03:45:17.645Z,57.66
2023-12-13T03:47:45.176Z,57.75
2023-12-13T03:50:12.709Z,57.62
2023-12-13T03:52:39.905Z,57.54
2023-12-13T03:55:07.866Z,57.48
2023-12-13T03:57:35.326Z,57.54
2023-12-13T04:00:02.616Z,57.48
2023-12-13T04:02:39.692Z,57.58
2023-12-13T04:05:07.345Z,57.59
2023-12-13T04:07:35.295Z,57.51
2023-12-13T04:10:02.673Z,57.56
2023-12-13T04:12:29.834Z,57.53
2023-12-13T04:14:56.871Z,57.53
2023-12-13T04:17:23.958Z,57.61
2023-12-13T04:19:51.028Z,57.69
2023-12-13T04:22:18.154Z,57.65
2023-12-13T04:24:45.263Z,57.74
2023-12-13T04:27:12.404Z,57.79
2023-12-13T04:29:39.817Z,57.83
2023-12-13T04:32:07.747Z,57.96
2023-12-13T04:34:35.093Z,57.98
2023-12-13T04:37:02.300Z,58.19
2023-12-13T04:39:29.394Z,58.09
2023-12-13T04:41:56.449Z,58.15
2023-12-13T04:44:28.838Z,58.14
2023-12-13T04:46:56.554Z,58.14
2023-12-13T04:49:24.041Z,58.16
2023-12-13T04:51:51.352Z,58.09
2023-12-13T04:54:20.346Z,58.11
2023-12-13T04:56:47.455Z,57.92
2023-12-13T04:59:14.668Z,58.05
2023-12-13T05:01:42.249Z,58.12
2023-12-13T05:04:09.338Z,58.07
2023-12-13T05:06:36.529Z,58.12
2023-12-13T05:09:03.912Z,58.07
2023-12-13T05:11:30.986Z,58.18
2023-12-13T05:13:58.078Z,58.10
2023-12-13T05:16:25.250Z,58.18
2023-12-13T05:18:52.397Z,58.25
2023-12-13T05:21:19.569Z,58.18
2023-12-13T05:23:46.653Z,58.19
2023-12-13T05:26:13.716Z,58.10
2023-12-13T05:28:40.882Z,58.09
2023-12-13T05:31:18.061Z,58.16
2023-12-13T05:33:45.115Z,58.06
2023-12-13T05:36:12.225Z,58.09
2023-12-13T05:38:39.252Z,57.95
2023-12-13T05:41:06.584Z,58.08
2023-12-13T05:43:36.510Z,57.99
2023-12-13T05:46:08.821Z,57.83
2023-12-13T05:48:36.063Z,58.05
2023-12-13T05:51:03.333Z,57.95
2023-12-13T05:53:30.413Z,57.85
2023-12-13T05:55:57.756Z,57.95
2023-12-13T05:58:24.968Z,58.06
2023-12-13T06:00:52.127Z,57.97
2023-12-13T06:03:19.290Z,58.00
2023-12-13T06:05:46.613Z,57.97
2023-12-13T06:08:13.779Z,57.96
2023-12-13T06:10:41.052Z,57.98
2023-12-13T06:13:08.166Z,58.04
2023-12-13T06:15:35.609Z,57.97
2023-12-13T06:18:02.838Z,57.95
2023-12-13T06:20:29.986Z,58.00
2023-12-13T06:22:57.080Z,58.06
2023-12-13T06:25:24.257Z,58.08
2023-12-13T06:27:51.381Z,57.92
2023-12-13T06:30:18.435Z,58.09
2023-12-13T06:32:45.597Z,58.11
2023-12-13T06:35:14.913Z,58.20
2023-12-13T06:37:43.084Z,58.17
2023-12-13T06:40:10.839Z,58.29
2023-12-13T06:42:37.873Z,58.20
2023-12-13T06:45:05.883Z,58.17
2023-12-13T06:47:33.430Z,58.15
2023-12-13T06:50:00.813Z,58.18
2023-12-13T06:52:27.949Z,58.21
2023-12-13T06:54:55.009Z,58.04
2023-12-13T06:57:22.102Z,57.88
2023-12-13T06:59:49.138Z,57.89
2023-12-13T07:02:16.365Z,57.81
2023-12-13T07:04:44.784Z,57.70
2023-12-13T07:07:16.297Z,57.75
2023-12-13T07:09:45.692Z,57.81
2023-12-13T07:12:12.965Z,57.81
2023-12-13T07:14:40.064Z,57.78
2023-12-13T07:17:07.166Z,57.84
2023-12-13T07:19:34.335Z,57.86
2023-12-13T07:22:01.471Z,57.82
2023-12-13T07:24:28.499Z,57.90
2023-12-13T07:26:55.573Z,57.88
2023-12-13T07:29:22.685Z,57.92
2023-12-13T07:31:49.876Z,57.95
2023-12-13T07:34:19.373Z,58.08
2023-12-13T07:36:49.708Z,58.01
2023-12-13T07:39:17.165Z,57.81
2023-12-13T07:41:44.314Z,57.84
2023-12-13T07:44:11.670Z,57.91
2023-12-13T07:46:39.810Z,57.84
2023-12-13T07:49:07.234Z,57.91
2023-12-13T07:51:35.254Z,57.91
2023-12-13T07:54:03.956Z,57.82
2023-12-13T07:56:32.673Z,57.96
2023-12-13T07:59:00.914Z,57.97
2023-12-13T08:01:28.577Z,58.05
2023-12-13T08:03:57.422Z,58.06
2023-12-13T08:06:25.017Z,58.10
2023-12-13T08:08:52.885Z,58.18
2023-12-13T08:11:20.163Z,58.01
2023-12-13T08:13:47.467Z,58.05
2023-12-13T08:16:14.681Z,58.04
2023-12-13T08:18:42.329Z,58.20
2023-12-13T08:21:09.932Z,58.18
2023-12-13T08:23:37.134Z,58.17
2023-12-13T08:26:04.504Z,58.22
2023-12-13T08:28:31.708Z,58.30
2023-12-13T08:31:08.735Z,58.30
2023-12-13T08:33:45.766Z,58.44
2023-12-13T08:36:14.268Z,58.45
2023-12-13T08:38:42.232Z,58.55
2023-12-13T08:41:12.894Z,58.54
2023-12-13T08:43:40.143Z,58.62
2023-12-13T08:46:07.439Z,58.66
2023-12-13T08:48:35.392Z,58.62
2023-12-13T08:51:03.817Z,58.49
2023-12-13T08:53:31.039Z,58.50
2023-12-13T08:55:58.178Z,58.44
2023-12-13T08:58:25.952Z,58.44
2023-12-13T09:00:53.132Z,58.42
2023-12-13T09:03:21.020Z,58.47
2023-12-13T09:05:48.514Z,58.47
2023-12-13T09:08:15.722Z,58.48
2023-12-13T09:10:43.061Z,58.59
2023-12-13T09:13:10.284Z,58.59
2023-12-13T09:15:37.330Z,58.56
2023-12-13T09:18:04.564Z,58.72
2023-12-13T09:20:31.762Z,58.47
2023-12-13T09:22:58.961Z,58.32
2023-12-13T09:25:26.743Z,58.66
2023-12-13T09:27:54.074Z,58.50
2023-12-13T09:30:21.414Z,58.51
2023-12-13T09:32:48.696Z,58.47
2023-12-13T09:35:16.188Z,58.43
2023-12-13T09:37:43.392Z,58.48
2023-12-13T09:40:18.661Z,58.28
2023-12-13T09:42:47.619Z,58.32
2023-12-13T09:45:24.238Z,58.28
2023-12-13T09:47:54.257Z,58.40
2023-12-13T09:50:24.705Z,58.43
2023-12-13T09:52:54.279Z,58.64
2023-12-13T09:55:21.603Z,58.65
2023-12-13T09:57:48.731Z,58.44
2023-12-13T10:00:16.371Z,58.46
2023-12-13T10:02:45.496Z,58.55
2023-12-13T10:05:13.360Z,58.45
2023-12-13T10:07:42.356Z,58.58
2023-12-13T10:10:10.319Z,58.53
2023-12-13T10:12:39.712Z,58.68
2023-12-13T10:15:14.071Z,58.73
2023-12-13T10:17:42.769Z,58.81
2023-12-13T10:20:12.085Z,59.02
2023-12-13T10:22:40.554Z,59.01
2023-12-13T10:25:08.497Z,59.15
2023-12-13T10:27:35.804Z,59.35
2023-12-13T10:30:05.514Z,59.27
2023-12-13T10:32:33.134Z,59.39
2023-12-13T10:35:05.368Z,59.22
2023-12-13T10:37:36.456Z,59.22
2023-12-13T10:40:04.959Z,59.54
2023-12-13T10:42:38.283Z,59.52
2023-12-13T10:45:10.752Z,59.35
2023-12-13T10:47:49.215Z,59.39
2023-12-13T10:50:16.676Z,59.52
2023-12-13T10:52:47.078Z,59.76
2023-12-13T10:55:16.377Z,59.78
2023-12-13T10:57:43.745Z,59.81
2023-12-13T11:00:12.128Z,59.97
2023-12-13T11:02:50.657Z,59.90
2023-12-13T11:05:18.625Z,59.90
2023-12-13T11:07:47.687Z,59.80
2023-12-13T11:10:16.187Z,59.58
2023-12-13T11:12:53.642Z,59.52
2023-12-13T11:15:21.334Z,59.57
2023-12-13T11:17:51.933Z,59.46
2023-12-13T11:20:22.113Z,59.62
2023-12-13T11:22:50.262Z,59.46
2023-12-13T11:25:18.750Z,59.36
2023-12-13T11:27:54.338Z,59.24
2023-12-13T11:30:23.129Z,59.16
2023-12-13T11:32:53.118Z,59.25
2023-12-13T11:35:22.038Z,59.00
2023-12-13T11:37:56.030Z,58.78
2023-12-13T11:40:23.318Z,58.74
2023-12-13T11:42:53.273Z,58.48
2023-12-13T11:45:21.254Z,58.35
2023-12-13T11:47:51.047Z,58.40
2023-12-13T11:50:21.070Z,58.24
2023-12-13T11:52:49.227Z,58.15
2023-12-13T11:55:23.680Z,58.16
2023-12-13T11:57:51.822Z,58.04
2023-12-13T12:00:22.053Z,57.97
2023-12-13T12:02:55.286Z,57.98
2023-12-13T12:05:26.113Z,57.96
2023-12-13T12:08:02.562Z,57.79
2023-12-13T12:10:32.971Z,57.66
2023-12-13T12:13:04.560Z,57.78
2023-12-13T12:15:34.891Z,57.79
2023-12-13T12:18:05.635Z,57.57
2023-12-13T12:20:32.721Z,57.61
2023-12-13T12:23:02.549Z,57.48
2023-12-13T12:25:31.060Z,57.39
2023-12-13T12:27:58.250Z,57.35
2023-12-13T12:30:26.633Z,57.35
2023-12-13T12:32:53.937Z,57.29
2023-12-13T12:35:21.066Z,57.38
2023-12-13T12:37:48.102Z,57.27
2023-12-13T12:42:43.436Z,57.28
2023-12-13T12:45:10.717Z,57.20
2023-12-13T12:47:38.265Z,57.11
2023-12-13T12:50:07.019Z,57.25
2023-12-13T12:52:34.257Z,57.13
2023-12-13T12:55:01.388Z,57.17
2023-12-13T12:57:28.517Z,57.08
2023-12-13T12:59:56.069Z,57.32
2023-12-13T13:02:23.558Z,57.29
2023-12-13T13:04:50.938Z,57.11
2023-12-13T13:07:18.172Z,57.14
2023-12-13T13:09:46.023Z,57.28
2023-12-13T13:12:13.202Z,57.35
2023-12-13T13:14:40.421Z,57.33
2023-12-13T13:17:07.613Z,57.25
2023-12-13T13:19:34.843Z,57.15
2023-12-13T13:22:05.938Z,56.99
2023-12-13T13:24:38.472Z,57.12
2023-12-13T13:27:11.215Z,56.87
2023-12-13T13:29:44.946Z,56.92
2023-12-13T13:32:12.450Z,56.91
2023-12-13T13:34:40.711Z,56.85
2023-12-13T13:37:07.882Z,56.92
2023-12-13T13:39:35.061Z,56.81
2023-12-13T13:42:03.970Z,56.69
2023-12-13T13:44:32.551Z,56.90
2023-12-13T13:46:59.664Z,56.89
2023-12-13T13:49:27.159Z,56.67
2023-12-13T13:51:54.504Z,56.71
2023-12-13T13:54:21.613Z,56.84
2023-12-13T13:56:48.759Z,56.81
2023-12-13T13:59:15.868Z,56.87
2023-12-13T14:01:43.078Z,56.61
2023-12-13T14:04:10.151Z,56.75
2023-12-13T14:06:37.257Z,56.92
2023-12-13T14:09:05.833Z,56.71
2023-12-13T14:11:33.941Z,56.94
2023-12-13T14:14:01.189Z,56.97
2023-12-13T14:16:48.207Z,56.81
2023-12-13T14:20:27.133Z,57.09
2023-12-13T14:24:08.638Z,57.22
2023-12-13T14:27:49.117Z,57.26
2023-12-13T14:31:31.202Z,57.34
2023-12-13T14:35:12.304Z,57.31
2023-12-13T14:38:54.189Z,57.22
2023-12-13T14:42:35.138Z,57.22
2023-12-13T14:45:16.144Z,57.23
2023-12-13T14:47:44.083Z,57.29
2023-12-13T14:50:12.826Z,57.12
2023-12-13T14:52:41.654Z,57.05
2023-12-13T14:55:09.804Z,57.07
2023-12-13T14:57:38.402Z,56.78
2023-12-13T15:00:12.833Z,56.83
2023-12-13T15:02:43.360Z,56.82
2023-12-13T15:05:14.255Z,56.53
2023-12-13T15:07:42.607Z,56.68
2023-12-13T15:10:13.158Z,56.82
2023-12-13T15:12:40.640Z,56.83
2023-12-13T15:15:09.131Z,56.56
2023-12-13T15:17:36.714Z,56.73
2023-12-13T15:20:10.997Z,56.62
2023-12-13T15:22:38.560Z,56.61
2023-12-13T15:25:11.826Z,56.61
2023-12-13T15:27:42.774Z,56.75
2023-12-13T15:30:12.735Z,56.75
2023-12-13T15:32:44.698Z,56.70
2023-12-13T15:35:12.478Z,56.70
2023-12-13T15:37:40.107Z,56.70
2023-12-13T15:40:09.938Z,56.75
2023-12-13T15:42:37.270Z,56.76
2023-12-13T15:45:06.101Z,56.66
2023-12-13T15:47:33.608Z,56.69
2023-12-13T15:50:01.751Z,56.59
2023-12-13T15:52:28.941Z,56.66
2023-12-13T15:54:57.307Z,56.60
2023-12-13T15:57:25.142Z,56.70
2023-12-13T15:59:52.288Z,56.47
2023-12-13T16:02:20.714Z,56.62
2023-12-13T16:04:47.870Z,56.71
2023-12-13T16:07:15.711Z,56.74
2023-12-13T16:09:42.889Z,56.75
2023-12-13T16:12:10.980Z,56.63
2023-12-13T16:14:38.077Z,56.81
2023-12-13T16:17:05.281Z,56.68
2023-12-13T16:19:32.512Z,56.60
2023-12-13T16:21:59.707Z,56.46
2023-12-13T16:24:26.872Z,56.40
2023-12-13T16:26:54.272Z,56.32
2023-12-13T16:29:29.860Z,56.38
2023-12-13T16:31:58.148Z,56.36
2023-12-13T16:34:25.401Z,56.26
2023-12-13T16:36:52.481Z,56.40
2023-12-13T16:39:20.820Z,56.40
2023-12-13T16:41:48.200Z,56.38
2023-12-13T16:44:16.991Z,56.30
2023-12-13T16:46:44.219Z,56.38
2023-12-13T16:49:11.464Z,56.32
2023-12-13T16:51:39.924Z,56.35
2023-12-13T16:54:07.189Z,56.25
2023-12-13T16:56:34.376Z,56.34
2023-12-13T16:59:02.825Z,56.43
2023-12-13T17:01:30.943Z,56.52
2023-12-13T17:04:00.182Z,56.60
2023-12-13T17:06:29.320Z,56.61
2023-12-13T17:09:00.556Z,56.44
2023-12-13T17:11:29.498Z,56.46
2023-12-13T17:13:57.001Z,56.41
2023-12-13T17:16:24.331Z,56.33
2023-12-13T17:18:51.645Z,56.59
2023-12-13T17:21:18.812Z,56.30
2023-12-13T17:23:45.881Z,56.27
2023-12-13T17:26:14.500Z,56.34
2023-12-13T17:28:42.232Z,56.49
2023-12-13T17:31:09.503Z,56.61
2023-12-13T17:33:36.702Z,56.67
2023-12-13T17:36:04.207Z,56.61
2023-12-13T17:38:31.312Z,56.73
2023-12-13T17:40:58.747Z,56.67
2023-12-13T17:43:25.994Z,56.71
2023-12-13T17:45:53.265Z,56.60
2023-12-13T17:48:20.732Z,56.63
2023-12-13T17:50:48.171Z,56.71
2023-12-13T17:53:16.112Z,56.81
2023-12-13T17:55:43.333Z,56.83
2023-12-13T17:58:11.725Z,56.78
2023-12-13T18:00:38.902Z,56.93
2023-12-13T18:03:06.081Z,56.90
2023-12-13T18:05:33.207Z,56.95
2023-12-13T18:08:00.573Z,56.95
2023-12-13T18:10:27.896Z,56.95
2023-12-13T18:12:55.074Z,56.97
2023-12-13T18:15:22.324Z,56.96
2023-12-13T18:17:49.701Z,56.88
2023-12-13T18:20:18.184Z,56.95
2023-12-13T18:22:45.512Z,57.04
2023-12-13T18:25:13.005Z,57.05
2023-12-13T18:27:40.170Z,57.03
2023-12-13T18:30:08.186Z,57.01
2023-12-13T18:32:35.801Z,57.14
2023-12-13T18:35:03.179Z,57.06
2023-12-13T18:37:31.504Z,57.11
2023-12-13T18:39:58.784Z,57.14
2023-12-13T18:42:25.878Z,56.96
2023-12-13T18:44:54.375Z,57.00
2023-12-13T18:47:21.943Z,56.96
2023-12-13T18:49:49.085Z,57.02
2023-12-13T18:52:16.316Z,57.03
2023-12-13T18:54:43.476Z,57.00
2023-12-13T18:57:10.566Z,56.91
2023-12-13T18:59:37.621Z,56.92
2023-12-13T19:02:04.825Z,56.83
2023-12-13T19:04:32.026Z,56.92
2023-12-13T19:06:59.209Z,56.97
2023-12-13T19:09:26.661Z,57.05
2023-12-13T19:11:53.710Z,56.89
2023-12-13T19:14:20.898Z,57.03
2023-12-13T19:16:49.662Z,56.94
2023-12-13T19:19:20.511Z,56.92
2023-12-13T19:21:49.485Z,56.85
2023-12-13T19:24:17.302Z,57.04
2023-12-13T19:26:44.498Z,57.03
2023-12-13T19:29:12.956Z,56.99
2023-12-13T19:31:40.248Z,57.12
2023-12-13T19:34:09.689Z,57.07
2023-12-13T19:36:39.257Z,57.14
2023-12-13T19:39:06.607Z,57.16
2023-12-13T19:41:34.231Z,57.14
2023-12-13T19:44:01.383Z,57.29
2023-12-13T19:46:28.618Z,57.29
2023-12-13T19:48:55.786Z,57.32
2023-12-13T19:51:24.458Z,57.32
2023-12-13T19:53:51.942Z,57.31
2023-12-13T19:56:19.481Z,57.44
2023-12-13T19:58:46.566Z,57.32
2023-12-13T20:01:15.093Z,57.28
2023-12-13T20:03:42.355Z,57.41
2023-12-13T20:06:11.351Z,57.42
2023-12-13T20:08:38.769Z,57.38
2023-12-13T20:11:06.150Z,57.38
2023-12-13T20:13:42.077Z,57.32
2023-12-13T20:16:13.350Z,57.34
2023-12-13T20:18:42.167Z,57.30
2023-12-13T20:21:09.347Z,57.21
2023-12-13T20:23:36.451Z,57.14
2023-12-13T20:26:05.792Z,57.17
2023-12-13T20:28:33.920Z,57.19
2023-12-13T20:31:01.758Z,57.23
2023-12-13T20:33:28.987Z,57.20
2023-12-13T20:35:57.748Z,57.15
2023-12-13T20:38:25.129Z,57.10
2023-12-13T20:40:52.356Z,57.04
2023-12-13T20:43:21.156Z,56.98
2023-12-13T20:45:48.246Z,56.92
2023-12-13T20:48:15.467Z,56.76
2023-12-13T20:50:43.722Z,56.76
2023-12-13T20:53:10.928Z,56.80
2023-12-13T20:55:38.106Z,56.80
2023-12-13T20:58:05.234Z,56.71
2023-12-13T21:00:34.250Z,56.68
2023-12-13T21:03:02.108Z,56.63
2023-12-13T21:05:31.232Z,56.59
2023-12-13T21:07:58.920Z,56.61
2023-12-13T21:10:26.552Z,56.47
2023-12-13T21:12:53.751Z,56.47
2023-12-13T21:15:20.935Z,56.40
2023-12-13T21:17:48.147Z,56.40
2023-12-13T21:20:15.545Z,56.25
2023-12-13T21:22:42.819Z,56.36
2023-12-13T21:25:10.157Z,56.25
2023-12-13T21:27:37.609Z,56.44
2023-12-13T21:30:06.644Z,56.23
2023-12-13T21:32:34.334Z,56.25
2023-12-13T21:35:01.918Z,56.32
2023-12-13T21:37:29.091Z,56.28
2023-12-13T21:39:56.724Z,56.19
2023-12-13T21:42:24.939Z,56.04
2023-12-13T21:44:52.042Z,56.18
2023-12-13T21:47:20.343Z,56.03
2023-12-13T21:49:48.057Z,56.12
2023-12-13T21:52:19.260Z,56.04
2023-12-13T21:54:47.188Z,56.00
2023-12-13T21:57:14.414Z,56.12
2023-12-13T21:59:41.565Z,56.07
2023-12-13T22:02:08.924Z,56.09
2023-12-13T22:04:36.146Z,56.24
2023-12-13T22:07:03.428Z,56.23
2023-12-13T22:09:30.681Z,56.21
2023-12-13T22:11:57.811Z,56.24
2023-12-13T22:14:25.036Z,56.19
2023-12-13T22:16:53.764Z,56.14
2023-12-13T22:19:39.539Z,56.22
2023-12-13T22:22:06.719Z,56.23
2023-12-13T22:24:33.854Z,56.22
2023-12-13T22:27:04.045Z,56.21
2023-12-13T22:29:31.129Z,56.26
2023-12-13T22:31:58.321Z,56.35
2023-12-13T22:34:25.741Z,56.45
2023-12-13T22:36:52.845Z,56.35
2023-12-13T22:39:19.946Z,56.31
2023-12-13T22:41:47.006Z,56.38
2023-12-13T22:44:14.181Z,56.29
2023-12-13T22:46:41.309Z,56.29
2023-12-13T22:49:09.513Z,56.39
2023-12-13T22:52:17.271Z,56.39
2023-12-13T22:54:23.732Z,56.42
2023-12-13T22:56:51.159Z,56.41
2023-12-13T22:59:18.259Z,56.37
2023-12-13T23:01:48.764Z,56.31
2023-12-13T23:04:16.225Z,56.34
2023-12-13T23:06:44.022Z,56.35
2023-12-13T23:09:14.093Z,56.46
2023-12-13T23:11:43.293Z,56.32
2023-12-13T23:14:10.443Z,56.29
2023-12-13T23:16:38.439Z,56.35
2023-12-13T23:19:05.867Z,56.28
2023-12-13T23:21:33.093Z,56.28
2023-12-13T23:24:00.218Z,56.18
2023-12-13T23:26:27.310Z,56.22
2023-12-13T23:28:54.479Z,56.08
2023-12-13T23:31:29.393Z,56.08
2023-12-13T23:34:00.927Z,56.10
2023-12-13T23:36:28.091Z,56.11
2023-12-13T23:38:55.523Z,56.15
2023-12-13T23:41:23.520Z,56.09
2023-12-13T23:43:50.945Z,56.10
2023-12-13T23:46:18.100Z,55.97
2023-12-13T23:48:46.227Z,55.93
2023-12-13T23:51:14.683Z,56.07
2023-12-13T23:53:41.927Z,55.99
2023-12-13T23:56:23.782Z,55.83
2023-12-13T23:58:51.813Z,55.99
